createdAt,value
2018-03-16T00:00:51.823Z,35.60
2018-03-16T00:01:51.979Z,35.70
2018-03-16T00:02:52.139Z,36.30
2018-03-16T00:03:52.327Z,35.90
2018-03-16T00:04:52.483Z,36.30
2018-03-16T00:05:52.651Z,35.80
2018-03-16T00:06:52.830Z,36.40
2018-03-16T00:07:55.167Z,36.90
2018-03-16T00:08:53.226Z,36.20
2018-03-16T00:09:53.374Z,37.20
2018-03-16T00:10:53.556Z,36.60
2018-03-16T00:11:53.727Z,36.50
2018-03-16T00:12:53.869Z,36.00
2018-03-16T00:13:54.035Z,37.10
2018-03-16T00:14:54.212Z,36.20
2018-03-16T00:15:54.357Z,38.40
2018-03-16T00:16:54.543Z,37.90
2018-03-16T00:17:54.715Z,38.70
2018-03-16T00:18:54.893Z,37.90
2018-03-16T00:19:55.068Z,38.70
2018-03-16T00:20:55.208Z,39.30
2018-03-16T00:21:55.391Z,39.30
2018-03-16T00:22:55.567Z,37.50
2018-03-16T00:23:55.716Z,38.30
2018-03-16T00:24:55.871Z,40.40
2018-03-16T00:25:56.057Z,39.80
2018-03-16T00:26:56.229Z,39.00
2018-03-16T00:27:56.399Z,39.90
2018-03-16T00:28:56.563Z,40.20
2018-03-16T00:29:56.725Z,39.60
2018-03-16T00:30:56.904Z,41.00
2018-03-16T00:31:57.058Z,41.80
2018-03-16T00:32:57.205Z,42.20
2018-03-16T00:33:57.387Z,41.00
2018-03-16T00:34:57.559Z,41.70
2018-03-16T00:35:57.725Z,41.50
2018-03-16T00:36:57.881Z,40.50
2018-03-16T00:37:58.045Z,39.20
2018-03-16T00:38:58.234Z,41.20
2018-03-16T00:39:58.419Z,41.40
2018-03-16T00:40:58.615Z,41.60
2018-03-16T00:41:58.754Z,40.80
2018-03-16T00:42:58.969Z,41.10
2018-03-16T00:43:59.104Z,41.70
2018-03-16T00:44:59.283Z,41.60
2018-03-16T00:45:59.461Z,41.90
2018-03-16T00:46:59.618Z,42.20
2018-03-16T00:47:59.778Z,43.40
2018-03-16T00:48:59.987Z,43.20
2018-03-16T00:50:00.145Z,43.20
2018-03-16T00:51:00.304Z,42.30
2018-03-16T00:52:00.487Z,42.90
2018-03-16T00:53:00.627Z,42.80
2018-03-16T00:54:00.748Z,42.20
2018-03-16T00:55:00.950Z,42.40
2018-03-16T00:56:01.110Z,42.50
2018-03-16T00:57:01.289Z,43.10
2018-03-16T00:58:01.447Z,45.40
2018-03-16T00:59:01.635Z,42.90
2018-03-16T01:00:01.780Z,44.40
2018-03-16T01:01:02.039Z,43.80
2018-03-16T01:02:02.093Z,43.80
2018-03-16T01:03:02.283Z,45.70
2018-03-16T01:04:02.487Z,44.20
2018-03-16T01:05:02.614Z,44.10
2018-03-16T01:06:02.753Z,44.20
2018-03-16T01:07:02.921Z,44.10
2018-03-16T01:08:03.085Z,42.90
2018-03-16T01:09:03.278Z,42.50
2018-03-16T01:10:03.424Z,43.70
2018-03-16T01:11:03.612Z,44.60
2018-03-16T01:12:03.760Z,45.90
2018-03-16T01:13:03.914Z,45.30
2018-03-16T01:14:04.108Z,45.90
2018-03-16T01:15:04.274Z,44.30
2018-03-16T01:16:04.453Z,45.30
2018-03-16T01:17:04.599Z,46.70
2018-03-16T01:18:04.758Z,45.80
2018-03-16T01:19:04.966Z,47.70
2018-03-16T01:20:05.096Z,46.90
2018-03-16T01:21:05.257Z,45.60
2018-03-16T01:22:05.415Z,44.80
2018-03-16T01:23:05.592Z,46.70
2018-03-16T01:24:05.753Z,46.70
2018-03-16T01:25:05.924Z,45.80
2018-03-16T01:26:06.083Z,45.90
2018-03-16T01:27:06.247Z,47.30
2018-03-16T01:28:06.425Z,46.20
2018-03-16T01:29:06.593Z,45.50
2018-03-16T01:30:06.763Z,47.30
2018-03-16T01:31:06.977Z,45.40
2018-03-16T01:32:07.087Z,45.40
2018-03-16T01:33:07.244Z,45.00
2018-03-16T01:34:07.440Z,45.80
2018-03-16T01:35:07.598Z,45.00
2018-03-16T01:36:07.769Z,46.00
2018-03-16T01:37:07.959Z,44.30
2018-03-16T01:38:08.103Z,46.00
2018-03-16T01:39:08.292Z,46.10
2018-03-16T01:40:08.474Z,45.10
2018-03-16T01:41:08.655Z,45.00
2018-03-16T01:42:08.777Z,44.10
2018-03-16T01:43:08.940Z,46.10
2018-03-16T01:44:09.097Z,46.80
2018-03-16T01:45:09.245Z,48.00
2018-03-16T01:46:09.428Z,45.40
2018-03-16T01:47:09.578Z,46.40
2018-03-16T01:48:09.747Z,46.20
2018-03-16T01:49:09.917Z,42.00
2018-03-16T01:50:10.075Z,45.00
2018-03-16T01:51:10.276Z,45.00
2018-03-16T01:52:10.429Z,44.70
2018-03-16T01:53:10.578Z,47.40
2018-03-16T01:54:10.728Z,46.00
2018-03-16T01:55:10.903Z,45.80
2018-03-16T01:56:11.073Z,45.90
2018-03-16T01:57:11.225Z,44.70
2018-03-16T01:58:11.442Z,45.60
2018-03-16T01:59:11.558Z,46.10
2018-03-16T02:00:11.727Z,47.50
2018-03-16T02:01:11.877Z,46.30
2018-03-16T02:02:12.065Z,45.30
2018-03-16T02:03:12.224Z,44.50
2018-03-16T02:04:12.367Z,44.40
2018-03-16T02:05:12.552Z,45.60
2018-03-16T02:06:12.719Z,45.40
2018-03-16T02:07:12.878Z,44.10
2018-03-16T02:08:13.073Z,44.90
2018-03-16T02:09:13.227Z,47.30
2018-03-16T02:10:13.370Z,44.70
2018-03-16T02:11:13.534Z,44.50
2018-03-16T02:12:13.690Z,44.30
2018-03-16T02:13:13.861Z,43.30
2018-03-16T02:14:14.015Z,43.80
2018-03-16T02:15:14.215Z,45.00
2018-03-16T02:16:14.331Z,44.40
2018-03-16T02:17:14.511Z,43.50
2018-03-16T02:18:14.659Z,43.40
2018-03-16T02:19:14.837Z,42.70
2018-03-16T02:20:15.009Z,43.70
2018-03-16T02:21:15.176Z,45.20
2018-03-16T02:22:15.347Z,43.70
2018-03-16T02:23:15.513Z,42.60
2018-03-16T02:24:15.672Z,42.70
2018-03-16T02:25:15.848Z,41.10
2018-03-16T02:26:16.037Z,42.50
2018-03-16T02:27:16.171Z,41.40
2018-03-16T02:28:16.573Z,42.40
2018-03-16T02:29:16.502Z,42.10
2018-03-16T02:30:16.662Z,42.00
2018-03-16T02:31:16.823Z,39.20
2018-03-16T02:32:16.990Z,41.00
2018-03-16T02:33:17.163Z,41.80
2018-03-16T02:34:17.364Z,41.90
2018-03-16T02:35:17.496Z,42.20
2018-03-16T02:36:17.665Z,42.10
2018-03-16T02:37:17.838Z,41.80
2018-03-16T02:38:17.993Z,42.80
2018-03-16T02:39:18.167Z,41.60
2018-03-16T02:40:18.342Z,40.80
2018-03-16T02:41:18.488Z,40.50
2018-03-16T02:42:18.657Z,41.70
2018-03-16T02:43:18.825Z,41.10
2018-03-16T02:44:19.028Z,40.80
2018-03-16T02:45:19.145Z,40.10
2018-03-16T02:46:19.302Z,39.50
2018-03-16T02:47:19.472Z,39.10
2018-03-16T02:48:19.661Z,39.90
2018-03-16T02:49:19.801Z,39.20
2018-03-16T02:50:19.962Z,39.40
2018-03-16T02:51:20.143Z,40.80
2018-03-16T02:52:20.309Z,39.80
2018-03-16T02:53:20.487Z,37.80
2018-03-16T02:54:20.645Z,38.60
2018-03-16T02:55:20.811Z,38.10
2018-03-16T02:56:20.988Z,38.40
2018-03-16T02:57:21.155Z,37.80
2018-03-16T02:58:21.322Z,37.50
2018-03-16T02:59:21.505Z,37.30
2018-03-16T03:00:21.678Z,37.10
2018-03-16T03:01:21.846Z,37.00
2018-03-16T03:02:22.025Z,36.80
2018-03-16T03:03:22.196Z,35.80
2018-03-16T03:04:22.388Z,36.30
2018-03-16T03:05:22.549Z,36.20
2018-03-16T03:06:22.719Z,35.40
2018-03-16T03:07:22.882Z,35.70
2018-03-16T03:08:23.056Z,35.70
2018-03-16T03:09:23.194Z,35.90
2018-03-16T03:10:23.386Z,33.90
2018-03-16T03:11:23.536Z,32.30
2018-03-16T03:12:23.702Z,34.60
2018-03-16T03:13:23.893Z,34.70
2018-03-16T03:14:24.057Z,35.00
2018-03-16T03:15:24.208Z,32.80
2018-03-16T03:16:24.437Z,33.00
2018-03-16T03:17:24.546Z,33.60
2018-03-16T03:18:24.706Z,33.80
2018-03-16T03:19:24.895Z,33.30
2018-03-16T03:20:25.037Z,32.30
2018-03-16T03:21:25.191Z,31.50
2018-03-16T03:22:25.344Z,32.20
2018-03-16T03:23:25.518Z,33.10
2018-03-16T03:24:25.691Z,32.30
2018-03-16T03:25:25.847Z,30.50
2018-03-16T03:26:26.010Z,32.20
2018-03-16T03:27:26.169Z,30.80
2018-03-16T03:28:26.336Z,32.20
2018-03-16T03:29:26.500Z,31.20
2018-03-16T03:30:26.669Z,30.10
2018-03-16T03:31:26.853Z,29.70
2018-03-16T03:32:27.017Z,31.50
2018-03-16T03:33:27.196Z,30.30
2018-03-16T03:34:27.355Z,28.80
2018-03-16T03:35:27.508Z,28.90
2018-03-16T03:36:27.675Z,28.20
2018-03-16T03:37:27.866Z,28.80
2018-03-16T03:38:27.992Z,27.70
2018-03-16T03:39:28.178Z,26.70
2018-03-16T03:40:28.337Z,25.60
2018-03-16T03:41:28.501Z,26.80
2018-03-16T03:42:28.655Z,25.30
2018-03-16T03:43:28.819Z,26.00
2018-03-16T03:44:28.993Z,25.70
2018-03-16T03:45:29.146Z,25.70
2018-03-16T03:46:29.300Z,24.60
2018-03-16T03:47:29.461Z,26.60
2018-03-16T03:48:29.609Z,26.10
2018-03-16T03:49:29.772Z,25.40
2018-03-16T03:50:29.931Z,25.40
2018-03-16T03:51:30.106Z,24.40
2018-03-16T03:52:30.283Z,26.60
2018-03-16T03:53:30.442Z,24.80
2018-03-16T03:54:30.620Z,25.30
2018-03-16T03:55:30.793Z,25.20
2018-03-16T03:56:30.960Z,24.40
2018-03-16T03:57:31.136Z,24.40
2018-03-16T03:58:31.292Z,23.80
2018-03-16T03:59:31.460Z,24.90
2018-03-16T04:00:31.614Z,24.30
2018-03-16T04:01:31.775Z,24.80
2018-03-16T04:02:31.933Z,24.30
2018-03-16T04:03:32.113Z,24.20
2018-03-16T04:04:32.269Z,24.20
2018-03-16T04:05:32.435Z,23.90
2018-03-16T04:06:32.591Z,23.60
2018-03-16T04:07:32.761Z,23.90
2018-03-16T04:08:32.904Z,23.80
2018-03-16T04:09:33.073Z,25.30
2018-03-16T04:10:33.242Z,23.20
2018-03-16T04:11:33.408Z,23.40
2018-03-16T04:12:33.569Z,24.00
2018-03-16T04:13:33.748Z,23.10
2018-03-16T04:14:33.937Z,24.10
2018-03-16T04:15:34.109Z,23.10
2018-03-16T04:16:34.274Z,22.90
2018-03-16T04:17:34.444Z,22.40
2018-03-16T04:18:34.594Z,22.90
2018-03-16T04:19:34.766Z,23.40
2018-03-16T04:20:34.915Z,23.50
2018-03-16T04:21:35.088Z,23.20
2018-03-16T04:22:35.237Z,22.50
2018-03-16T04:23:35.433Z,23.40
2018-03-16T04:24:35.585Z,23.20
2018-03-16T04:25:35.754Z,23.30
2018-03-16T04:26:35.926Z,24.60
2018-03-16T04:27:36.087Z,23.30
2018-03-16T04:28:36.266Z,21.60
2018-03-16T04:29:36.439Z,22.80
2018-03-16T04:30:36.609Z,21.40
2018-03-16T04:31:36.790Z,22.40
2018-03-16T04:32:36.955Z,21.60
2018-03-16T04:33:37.144Z,22.10
2018-03-16T04:34:37.302Z,22.40
2018-03-16T04:35:37.466Z,23.50
2018-03-16T04:36:37.621Z,22.90
2018-03-16T04:37:37.789Z,21.60
2018-03-16T04:38:37.940Z,22.70
2018-03-16T04:39:38.111Z,22.30
2018-03-16T04:40:38.256Z,22.60
2018-03-16T04:41:38.454Z,22.60
2018-03-16T04:42:38.589Z,22.00
2018-03-16T04:43:38.766Z,21.80
2018-03-16T04:44:39.162Z,21.10
2018-03-16T04:45:39.099Z,21.80
2018-03-16T04:46:39.269Z,21.30
2018-03-16T04:47:39.430Z,21.90
2018-03-16T04:48:39.605Z,22.60
2018-03-16T04:49:39.780Z,22.10
2018-03-16T04:50:39.944Z,21.40
2018-03-16T04:51:40.126Z,21.70
2018-03-16T04:52:40.298Z,20.80
2018-03-16T04:53:40.459Z,21.40
2018-03-16T04:54:40.630Z,21.00
2018-03-16T04:55:40.788Z,21.20
2018-03-16T04:56:40.949Z,20.50
2018-03-16T04:57:41.385Z,21.00
2018-03-16T04:58:41.294Z,21.10
2018-03-16T04:59:41.438Z,20.70
2018-03-16T05:00:41.614Z,21.20
2018-03-16T05:01:41.769Z,21.60
2018-03-16T05:02:41.944Z,21.10
2018-03-16T05:03:42.118Z,20.80
2018-03-16T05:04:42.286Z,21.30
2018-03-16T05:05:42.468Z,20.20
2018-03-16T05:06:42.624Z,20.30
2018-03-16T05:07:42.796Z,20.70
2018-03-16T05:08:42.948Z,20.50
2018-03-16T05:09:43.110Z,19.90
2018-03-16T05:10:43.275Z,20.30
2018-03-16T05:11:43.440Z,20.40
2018-03-16T05:12:43.602Z,20.40
2018-03-16T05:13:43.777Z,20.60
2018-03-16T05:14:43.955Z,20.10
2018-03-16T05:15:44.174Z,20.00
2018-03-16T05:16:44.288Z,20.20
2018-03-16T05:17:44.456Z,19.90
2018-03-16T05:18:44.630Z,20.40
2018-03-16T05:19:44.802Z,20.30
2018-03-16T05:20:44.983Z,21.00
2018-03-16T05:21:45.160Z,19.70
2018-03-16T05:22:45.345Z,19.60
2018-03-16T05:23:45.507Z,20.10
2018-03-16T05:24:45.681Z,19.90
2018-03-16T05:25:45.841Z,19.80
2018-03-16T05:26:46.020Z,20.10
2018-03-16T05:27:46.205Z,19.70
2018-03-16T05:28:46.362Z,19.90
2018-03-16T05:29:46.537Z,19.90
2018-03-16T05:30:46.728Z,20.30
2018-03-16T05:31:46.881Z,19.50
2018-03-16T05:32:47.053Z,19.50
2018-03-16T05:33:47.237Z,19.90
2018-03-16T05:34:47.401Z,20.30
2018-03-16T05:35:47.573Z,19.80
2018-03-16T05:36:47.748Z,20.20
2018-03-16T05:37:47.917Z,19.30
2018-03-16T05:38:48.096Z,20.10
2018-03-16T05:39:48.264Z,19.90
2018-03-16T05:40:48.433Z,20.10
2018-03-16T05:41:48.612Z,19.90
2018-03-16T05:42:48.790Z,19.20
2018-03-16T05:43:49.204Z,19.10
2018-03-16T05:44:49.122Z,18.30
2018-03-16T05:45:49.300Z,19.60
2018-03-16T05:46:49.456Z,19.30
2018-03-16T05:47:49.635Z,18.50
2018-03-16T05:48:49.807Z,18.40
2018-03-16T05:49:49.976Z,19.20
2018-03-16T05:50:50.172Z,18.50
2018-03-16T05:51:50.330Z,18.60
2018-03-16T05:52:50.500Z,19.30
2018-03-16T05:53:50.680Z,19.10
2018-03-16T05:54:50.872Z,18.70
2018-03-16T05:55:51.029Z,19.40
2018-03-16T05:56:51.456Z,19.00
2018-03-16T05:57:51.373Z,18.80
2018-03-16T05:58:51.554Z,18.00
2018-03-16T05:59:51.728Z,18.90
2018-03-16T06:00:51.949Z,19.30
2018-03-16T06:01:52.084Z,18.50
2018-03-16T06:02:52.258Z,18.30
2018-03-16T06:03:52.431Z,19.00
2018-03-16T06:04:52.609Z,18.50
2018-03-16T06:05:52.784Z,18.90
2018-03-16T06:07:53.126Z,17.60
2018-03-16T06:08:53.324Z,17.80
2018-03-16T06:09:53.479Z,18.20
2018-03-16T06:10:53.657Z,18.40
2018-03-16T06:11:53.832Z,18.60
2018-03-16T06:12:54.008Z,19.40
2018-03-16T06:13:54.189Z,18.70
2018-03-16T06:14:54.352Z,19.40
2018-03-16T06:15:54.526Z,18.70
2018-03-16T06:16:54.701Z,17.60
2018-03-16T06:17:54.881Z,16.90
2018-03-16T06:18:55.053Z,17.50
2018-03-16T06:19:55.230Z,18.90
2018-03-16T06:20:55.401Z,17.70
2018-03-16T06:21:55.580Z,18.00
2018-03-16T06:22:55.753Z,18.10
2018-03-16T06:23:55.921Z,18.10
2018-03-16T06:24:56.102Z,17.00
2018-03-16T06:25:56.279Z,18.50
2018-03-16T06:26:56.510Z,16.50
2018-03-16T06:27:56.630Z,17.00
2018-03-16T06:28:56.804Z,17.60
2018-03-16T06:29:56.993Z,17.80
2018-03-16T06:30:57.146Z,17.80
2018-03-16T06:31:57.333Z,17.20
2018-03-16T06:32:57.498Z,18.30
2018-03-16T06:33:57.670Z,17.40
2018-03-16T06:34:57.849Z,17.20
2018-03-16T06:35:58.022Z,16.60
2018-03-16T06:36:58.197Z,16.90
2018-03-16T06:37:58.369Z,16.30
2018-03-16T06:38:58.554Z,15.90
2018-03-16T06:39:58.743Z,15.80
2018-03-16T06:40:58.881Z,16.20
2018-03-16T06:41:59.030Z,15.20
2018-03-16T06:42:59.210Z,15.70
2018-03-16T06:43:59.364Z,15.40
2018-03-16T06:44:59.692Z,14.60
2018-03-16T06:45:59.725Z,15.30
2018-03-16T06:46:59.899Z,15.10
2018-03-16T06:48:00.074Z,14.80
2018-03-16T06:49:00.252Z,14.80
2018-03-16T06:50:00.412Z,14.80
2018-03-16T06:51:00.584Z,15.90
2018-03-16T06:52:00.753Z,15.10
2018-03-16T06:53:00.930Z,14.90
2018-03-16T06:54:01.111Z,15.10
2018-03-16T06:55:01.275Z,14.20
2018-03-16T06:56:01.461Z,14.40
2018-03-16T06:57:01.612Z,14.30
2018-03-16T06:58:01.793Z,14.60
2018-03-16T06:59:01.943Z,14.80
2018-03-16T07:00:02.123Z,14.40
2018-03-16T07:01:02.299Z,13.60
2018-03-16T07:02:02.470Z,14.20
2018-03-16T07:03:02.640Z,13.80
2018-03-16T07:04:02.817Z,13.00
2018-03-16T07:05:02.994Z,13.90
2018-03-16T07:06:03.172Z,13.90
2018-03-16T07:07:03.344Z,14.30
2018-03-16T07:08:03.530Z,13.80
2018-03-16T07:09:03.701Z,13.50
2018-03-16T07:10:03.885Z,13.60
2018-03-16T07:11:04.054Z,13.30
2018-03-16T07:12:25.247Z,13.90
2018-03-16T07:13:04.383Z,13.00
2018-03-16T07:14:04.568Z,13.00
2018-03-16T07:15:04.741Z,12.60
2018-03-16T07:16:04.929Z,12.00
2018-03-16T07:17:05.091Z,12.00
2018-03-16T07:18:05.276Z,12.40
2018-03-16T07:19:05.448Z,12.20
2018-03-16T07:20:05.621Z,12.30
2018-03-16T07:21:05.796Z,12.60
2018-03-16T07:22:05.976Z,12.30
2018-03-16T07:23:06.160Z,12.30
2018-03-16T07:24:06.329Z,11.90
2018-03-16T07:25:06.501Z,11.60
2018-03-16T07:26:06.672Z,11.90
2018-03-16T07:27:06.848Z,11.60
2018-03-16T07:28:07.027Z,11.50
2018-03-16T07:29:07.202Z,11.70
2018-03-16T07:30:07.651Z,11.10
2018-03-16T07:31:07.552Z,11.80
2018-03-16T07:32:07.722Z,10.80
2018-03-16T07:33:07.899Z,10.20
2018-03-16T07:34:08.076Z,10.90
2018-03-16T07:35:08.251Z,11.00
2018-03-16T07:36:08.426Z,11.90
2018-03-16T07:37:08.655Z,10.70
2018-03-16T07:38:08.788Z,10.50
2018-03-16T07:39:08.952Z,11.10
2018-03-16T07:40:09.136Z,10.80
2018-03-16T07:41:09.310Z,10.80
2018-03-16T07:42:09.480Z,11.80
2018-03-16T07:43:09.652Z,11.00
2018-03-16T07:44:09.831Z,12.70
2018-03-16T07:45:10.007Z,11.70
2018-03-16T07:46:10.183Z,10.90
2018-03-16T07:47:10.357Z,10.90
2018-03-16T07:48:10.531Z,10.70
2018-03-16T07:49:10.711Z,10.40
2018-03-16T07:50:11.127Z,9.80
2018-03-16T07:51:11.063Z,11.00
2018-03-16T07:52:11.240Z,10.50
2018-03-16T07:53:11.445Z,10.50
2018-03-16T07:54:11.588Z,10.40
2018-03-16T07:55:11.810Z,10.50
2018-03-16T07:56:11.935Z,10.60
2018-03-16T07:57:12.111Z,10.20
2018-03-16T07:58:12.285Z,11.50
2018-03-16T07:59:12.508Z,12.70
2018-03-16T08:00:12.732Z,11.40
2018-03-16T08:01:12.859Z,186.10
2018-03-16T08:02:13.044Z,57.20
2018-03-16T08:03:13.215Z,59.70
2018-03-16T08:04:13.383Z,16.90
2018-03-16T08:05:13.562Z,11.50
2018-03-16T08:06:13.741Z,11.20
2018-03-16T08:07:13.911Z,10.10
2018-03-16T08:08:14.088Z,10.10
2018-03-16T08:09:14.259Z,10.80
2018-03-16T08:10:14.436Z,10.10
2018-03-16T08:11:14.605Z,10.60
2018-03-16T08:12:14.810Z,10.20
2018-03-16T08:13:14.962Z,10.10
2018-03-16T08:14:15.130Z,10.30
2018-03-16T08:15:15.343Z,10.10
2018-03-16T08:16:15.511Z,10.50
2018-03-16T08:17:15.928Z,9.50
2018-03-16T08:18:16.071Z,9.40
2018-03-16T08:19:16.269Z,9.60
2018-03-16T08:20:16.352Z,9.10
2018-03-16T08:21:16.516Z,9.40
2018-03-16T08:22:16.692Z,9.70
2018-03-16T08:23:16.878Z,9.50
2018-03-16T08:24:17.297Z,9.70
2018-03-16T08:25:17.224Z,9.30
2018-03-16T08:26:17.402Z,10.20
2018-03-16T08:27:17.566Z,11.40
2018-03-16T08:28:17.747Z,10.80
2018-03-16T08:29:17.916Z,10.40
2018-03-16T08:30:18.096Z,10.30
2018-03-16T08:31:18.270Z,9.60
2018-03-16T08:32:18.449Z,10.00
2018-03-16T08:33:18.623Z,9.80
2018-03-16T08:34:19.046Z,9.00
2018-03-16T08:35:18.975Z,9.30
2018-03-16T08:36:19.157Z,9.70
2018-03-16T08:38:19.495Z,9.90
2018-03-16T08:39:19.680Z,9.20
2018-03-16T08:40:19.844Z,9.10
2018-03-16T08:41:20.029Z,9.40
2018-03-16T08:42:20.227Z,9.50
2018-03-16T08:43:20.365Z,9.80
2018-03-16T08:44:20.544Z,9.60
2018-03-16T08:45:20.715Z,9.30
2018-03-16T08:46:20.900Z,9.50
2018-03-16T08:47:21.076Z,9.40
2018-03-16T08:48:21.243Z,10.20
2018-03-16T08:49:21.428Z,9.30
2018-03-16T08:50:21.616Z,9.20
2018-03-16T08:51:21.790Z,9.60
2018-03-16T08:52:21.974Z,9.80
2018-03-16T08:53:22.138Z,9.70
2018-03-16T08:54:22.317Z,9.70
2018-03-16T08:55:22.503Z,10.80
2018-03-16T08:56:22.673Z,10.90
2018-03-16T08:57:22.852Z,11.10
2018-03-16T08:58:23.027Z,9.90
2018-03-16T08:59:23.205Z,10.20
2018-03-16T09:00:23.375Z,9.60
2018-03-16T09:01:23.553Z,9.50
2018-03-16T09:02:23.732Z,9.20
2018-03-16T09:03:23.905Z,9.00
2018-03-16T09:04:24.084Z,9.30
2018-03-16T09:05:24.270Z,9.50
2018-03-16T09:06:24.438Z,9.50
2018-03-16T09:07:24.612Z,9.50
2018-03-16T09:08:24.788Z,10.20
2018-03-16T09:09:24.967Z,9.40
2018-03-16T09:10:25.134Z,9.70
2018-03-16T09:11:25.318Z,9.40
2018-03-16T09:12:25.491Z,9.40
2018-03-16T09:13:25.665Z,9.40
2018-03-16T09:14:25.839Z,9.50
2018-03-16T09:15:26.012Z,9.20
2018-03-16T09:16:26.192Z,10.10
2018-03-16T09:17:26.359Z,9.30
2018-03-16T09:18:26.554Z,9.20
2018-03-16T09:19:26.722Z,9.70
2018-03-16T09:20:26.904Z,9.90
2018-03-16T09:21:27.062Z,10.10
2018-03-16T09:22:27.238Z,10.10
2018-03-16T09:23:27.448Z,8.90
2018-03-16T09:24:27.598Z,9.50
2018-03-16T09:25:27.775Z,8.90
2018-03-16T09:26:27.940Z,9.30
2018-03-16T09:27:28.121Z,8.40
2018-03-16T09:28:28.291Z,9.20
2018-03-16T09:29:28.475Z,8.60
2018-03-16T09:30:28.643Z,8.50
2018-03-16T09:31:28.818Z,8.60
2018-03-16T09:32:28.996Z,9.00
2018-03-16T09:33:29.170Z,8.40
2018-03-16T09:34:29.597Z,8.20
2018-03-16T09:35:29.523Z,7.70
2018-03-16T09:36:29.708Z,7.90
2018-03-16T09:37:29.876Z,7.30
2018-03-16T09:38:30.053Z,7.60
2018-03-16T09:39:30.229Z,7.30
2018-03-16T09:40:30.405Z,7.80
2018-03-16T09:41:30.579Z,7.50
2018-03-16T09:42:30.751Z,7.60
2018-03-16T09:43:30.946Z,7.60
2018-03-16T09:44:31.104Z,7.30
2018-03-16T09:45:31.275Z,7.70
2018-03-16T09:46:31.461Z,7.60
2018-03-16T09:47:31.630Z,7.70
2018-03-16T09:48:31.810Z,7.90
2018-03-16T09:49:31.977Z,8.00
2018-03-16T09:50:32.159Z,8.10
2018-03-16T09:51:32.588Z,7.70
2018-03-16T09:52:36.193Z,8.30
2018-03-16T09:53:32.875Z,8.00
2018-03-16T09:54:32.992Z,8.10
2018-03-16T09:55:33.090Z,8.00
2018-03-16T09:56:33.268Z,10.10
2018-03-16T09:57:33.573Z,11.10
2018-03-16T09:58:33.647Z,9.00
2018-03-16T09:59:33.816Z,9.90
2018-03-16T10:00:33.993Z,8.60
2018-03-16T10:01:34.180Z,8.80
2018-03-16T10:02:34.561Z,8.80
2018-03-16T10:03:35.480Z,9.20
2018-03-16T10:04:34.757Z,9.20
2018-03-16T10:05:51.770Z,9.50
2018-03-16T10:06:35.162Z,9.50
2018-03-16T10:08:35.266Z,10.00
2018-03-16T10:09:35.427Z,61.10
2018-03-16T10:10:35.602Z,12.70
2018-03-16T10:11:35.779Z,10.80
2018-03-16T10:12:35.960Z,9.80
2018-03-16T10:13:36.128Z,10.80
2018-03-16T10:14:36.299Z,9.70
2018-03-16T10:15:36.481Z,10.30
2018-03-16T10:16:36.644Z,10.20
2018-03-16T10:18:36.985Z,9.50
2018-03-16T10:19:37.162Z,10.60
2018-03-16T10:20:37.344Z,9.40
2018-03-16T10:21:37.521Z,8.70
2018-03-16T10:22:37.690Z,9.40
2018-03-16T10:23:37.885Z,10.20
2018-03-16T10:24:38.047Z,11.20
2018-03-16T10:25:38.279Z,12.90
2018-03-16T10:26:38.398Z,12.00
2018-03-16T10:27:38.935Z,10.40
2018-03-16T10:28:38.751Z,11.20
2018-03-16T10:29:38.937Z,10.40
2018-03-16T10:30:39.104Z,11.80
2018-03-16T10:31:39.279Z,11.30
2018-03-16T10:32:39.455Z,11.70
2018-03-16T10:33:39.629Z,11.10
2018-03-16T10:34:39.797Z,11.30
2018-03-16T10:35:39.980Z,10.80
2018-03-16T10:36:40.144Z,10.60
2018-03-16T10:37:40.322Z,11.80
2018-03-16T10:38:40.507Z,16.00
2018-03-16T10:39:40.673Z,14.20
2018-03-16T10:40:40.848Z,13.10
2018-03-16T10:41:41.020Z,12.10
2018-03-16T10:42:41.196Z,12.10
2018-03-16T10:43:41.372Z,11.50
2018-03-16T10:44:41.553Z,12.30
2018-03-16T10:45:41.720Z,11.80
2018-03-16T10:46:41.898Z,11.70
2018-03-16T10:47:42.068Z,12.50
2018-03-16T10:48:42.256Z,12.20
2018-03-16T10:49:42.425Z,11.80
2018-03-16T10:50:42.593Z,11.70
2018-03-16T10:51:42.762Z,83.40
2018-03-16T10:52:42.940Z,51.50
2018-03-16T10:53:43.111Z,122.80
2018-03-16T10:54:43.288Z,39.70
2018-03-16T10:55:43.461Z,12.00
2018-03-16T10:56:43.637Z,13.40
2018-03-16T10:57:43.810Z,13.00
2018-03-16T10:58:44.001Z,12.90
2018-03-16T10:59:44.184Z,12.30
2018-03-16T11:00:44.331Z,12.60
2018-03-16T11:01:44.505Z,11.90
2018-03-16T11:02:44.684Z,12.40
2018-03-16T11:03:44.860Z,11.50
2018-03-16T11:04:45.039Z,12.30
2018-03-16T11:05:45.219Z,11.90
2018-03-16T11:06:45.390Z,12.70
2018-03-16T11:07:45.606Z,12.60
2018-03-16T11:08:45.763Z,13.00
2018-03-16T11:09:45.908Z,13.50
2018-03-16T11:10:46.083Z,12.70
2018-03-16T11:11:46.249Z,13.50
2018-03-16T11:12:46.422Z,12.40
2018-03-16T11:13:46.607Z,13.10
2018-03-16T11:14:46.783Z,12.60
2018-03-16T11:15:46.953Z,12.70
2018-03-16T11:16:47.140Z,12.50
2018-03-16T11:17:47.547Z,13.50
2018-03-16T11:18:47.483Z,12.70
2018-03-16T11:19:47.659Z,12.80
2018-03-16T11:20:47.831Z,12.30
2018-03-16T11:21:48.005Z,12.10
2018-03-16T11:22:48.181Z,13.20
2018-03-16T11:23:48.355Z,13.30
2018-03-16T11:24:48.526Z,13.00
2018-03-16T11:25:48.705Z,13.50
2018-03-16T11:26:48.882Z,16.90
2018-03-16T11:27:49.297Z,14.40
2018-03-16T11:28:49.233Z,12.50
2018-03-16T11:29:49.411Z,12.30
2018-03-16T11:30:49.588Z,12.70
2018-03-16T11:31:49.763Z,12.70
2018-03-16T11:32:49.944Z,12.90
2018-03-16T11:33:50.121Z,13.20
2018-03-16T11:34:50.320Z,12.40
2018-03-16T11:35:50.470Z,13.10
2018-03-16T11:36:50.644Z,15.30
2018-03-16T11:37:51.065Z,13.90
2018-03-16T11:38:50.985Z,13.90
2018-03-16T11:39:51.166Z,12.80
2018-03-16T11:40:51.339Z,13.30
2018-03-16T11:41:51.519Z,13.50
2018-03-16T11:42:51.681Z,13.10
2018-03-16T11:43:51.860Z,14.30
2018-03-16T11:44:52.038Z,13.90
2018-03-16T11:45:52.227Z,13.30
2018-03-16T11:46:52.361Z,13.70
2018-03-16T11:47:52.541Z,16.80
2018-03-16T11:48:52.715Z,16.40
2018-03-16T11:49:52.892Z,13.00
2018-03-16T11:50:53.317Z,13.50
2018-03-16T11:51:53.255Z,13.70
2018-03-16T11:52:53.427Z,14.00
2018-03-16T11:53:53.592Z,13.90
2018-03-16T11:54:53.767Z,14.00
2018-03-16T11:55:53.939Z,13.50
2018-03-16T11:56:54.106Z,14.20
2018-03-16T11:57:54.283Z,13.90
2018-03-16T11:58:54.463Z,14.40
2018-03-16T11:59:54.651Z,14.30
2018-03-16T12:00:54.809Z,14.90
2018-03-16T12:01:54.998Z,14.30
2018-03-16T12:02:55.181Z,14.70
2018-03-16T12:03:55.355Z,14.80
2018-03-16T12:04:55.536Z,14.30
2018-03-16T12:05:55.714Z,14.80
2018-03-16T12:06:55.882Z,14.60
2018-03-16T12:07:56.062Z,14.50
2018-03-16T12:08:56.234Z,14.40
2018-03-16T12:09:56.413Z,14.30
2018-03-16T12:10:56.582Z,14.60
2018-03-16T12:11:56.762Z,15.10
2018-03-16T12:12:57.019Z,14.20
2018-03-16T12:13:57.079Z,14.70
2018-03-16T12:14:57.257Z,14.70
2018-03-16T12:15:57.422Z,14.70
2018-03-16T12:16:57.585Z,22.90
2018-03-16T12:17:57.778Z,17.00
2018-03-16T12:18:57.958Z,14.20
2018-03-16T12:19:58.182Z,14.20
2018-03-16T12:20:58.359Z,14.10
2018-03-16T12:21:58.541Z,14.40
2018-03-16T12:22:58.714Z,16.60
2018-03-16T12:23:58.889Z,16.10
2018-03-16T12:24:59.084Z,15.00
2018-03-16T12:25:59.265Z,13.80
2018-03-16T12:26:59.408Z,13.50
2018-03-16T12:27:59.840Z,13.00
2018-03-16T12:28:59.785Z,14.20
2018-03-16T12:29:59.955Z,13.10
2018-03-16T12:31:00.144Z,13.30
2018-03-16T12:32:00.302Z,18.50
2018-03-16T12:33:00.483Z,96.10
2018-03-16T12:34:00.683Z,21.90
2018-03-16T12:35:00.871Z,18.90
2018-03-16T12:36:01.043Z,13.90
2018-03-16T12:37:01.200Z,13.20
2018-03-16T12:38:01.620Z,12.60
2018-03-16T12:39:01.539Z,13.00
2018-03-16T12:40:01.756Z,13.10
2018-03-16T12:41:01.949Z,13.40
2018-03-16T12:42:02.122Z,13.00
2018-03-16T12:43:02.299Z,13.30
2018-03-16T12:44:02.469Z,16.20
2018-03-16T12:45:02.643Z,13.40
2018-03-16T12:46:02.826Z,14.80
2018-03-16T12:47:03.010Z,14.30
2018-03-16T12:48:03.224Z,13.90
2018-03-16T12:49:03.348Z,12.10
2018-03-16T12:50:03.514Z,11.70
2018-03-16T12:51:03.670Z,12.20
2018-03-16T12:52:03.837Z,12.00
2018-03-16T12:53:04.020Z,11.50
2018-03-16T12:54:04.201Z,11.50
2018-03-16T12:55:04.349Z,11.80
2018-03-16T12:56:04.523Z,12.00
2018-03-16T12:57:04.716Z,11.80
2018-03-16T12:58:04.869Z,11.70
2018-03-16T12:59:05.039Z,17.40
2018-03-16T13:00:05.223Z,13.00
2018-03-16T13:01:05.396Z,13.10
2018-03-16T13:02:05.568Z,11.80